sensor_id;sensor_type;location;lat;lon;timestamp;P1;durP1;ratioP1;P2;durP2;ratioP2
6821;SDS011;3449;48.728;8.968;2022-12-17T00:01:53;26.03;;;10.97;;
6821;SDS011;3449;48.728;8.968;2022-12-17T00:04:38;26.53;;;12.57;;
6821;SDS011;3449;48.728;8.968;2022-12-17T00:07:23;29.87;;;13.60;;
6821;SDS011;3449;48.728;8.968;2022-12-17T00:10:07;29.23;;;12.70;;
6821;SDS011;3449;48.728;8.968;2022-12-17T00:12:52;33.07;;;15.07;;
6821;SDS011;3449;48.728;8.968;2022-12-17T00:15:37;31.33;;;14.67;;
6821;SDS011;3449;48.728;8.968;2022-12-17T00:18:21;35.90;;;15.60;;
6821;SDS011;3449;48.728;8.968;2022-12-17T00:21:07;29.87;;;13.60;;
6821;SDS011;3449;48.728;8.968;2022-12-17T00:23:52;37.33;;;14.00;;
6821;SDS011;3449;48.728;8.968;2022-12-17T00:26:36;39.83;;;15.27;;
6821;SDS011;3449;48.728;8.968;2022-12-17T00:29:21;31.87;;;14.60;;
6821;SDS011;3449;48.728;8.968;2022-12-17T00:32:05;33.60;;;15.00;;
6821;SDS011;3449;48.728;8.968;2022-12-17T00:34:49;36.40;;;13.50;;
6821;SDS011;3449;48.728;8.968;2022-12-17T00:37:38;27.97;;;13.20;;
6821;SDS011;3449;48.728;8.968;2022-12-17T00:40:25;37.00;;;14.40;;
6821;SDS011;3449;48.728;8.968;2022-12-17T00:43:10;32.70;;;15.30;;
6821;SDS011;3449;48.728;8.968;2022-12-17T00:45:56;32.77;;;13.90;;
6821;SDS011;3449;48.728;8.968;2022-12-17T00:48:41;31.17;;;14.70;;
6821;SDS011;3449;48.728;8.968;2022-12-17T00:51:26;31.00;;;14.13;;
6821;SDS011;3449;48.728;8.968;2022-12-17T00:54:12;32.93;;;13.20;;
6821;SDS011;3449;48.728;8.968;2022-12-17T00:56:56;26.63;;;12.47;;
6821;SDS011;3449;48.728;8.968;2022-12-17T00:59:40;33.03;;;13.53;;
6821;SDS011;3449;48.728;8.968;2022-12-17T01:02:24;35.93;;;12.70;;
6821;SDS011;3449;48.728;8.968;2022-12-17T01:05:11;32.03;;;12.63;;
6821;SDS011;3449;48.728;8.968;2022-12-17T01:07:56;22.30;;;11.30;;
6821;SDS011;3449;48.728;8.968;2022-12-17T01:10:50;25.30;;;10.37;;
6821;SDS011;3449;48.728;8.968;2022-12-17T01:13:34;33.13;;;15.80;;
6821;SDS011;3449;48.728;8.968;2022-12-17T01:16:18;35.77;;;16.20;;
6821;SDS011;3449;48.728;8.968;2022-12-17T01:19:03;31.23;;;15.20;;
6821;SDS011;3449;48.728;8.968;2022-12-17T01:21:47;34.87;;;16.27;;
6821;SDS011;3449;48.728;8.968;2022-12-17T01:24:31;33.80;;;15.07;;
6821;SDS011;3449;48.728;8.968;2022-12-17T01:27:16;36.03;;;15.87;;
6821;SDS011;3449;48.728;8.968;2022-12-17T01:30:00;29.93;;;14.63;;
6821;SDS011;3449;48.728;8.968;2022-12-17T01:32:45;35.40;;;14.47;;
6821;SDS011;3449;48.728;8.968;2022-12-17T01:35:29;31.00;;;13.60;;
6821;SDS011;3449;48.728;8.968;2022-12-17T01:38:13;40.10;;;16.30;;
6821;SDS011;3449;48.728;8.968;2022-12-17T01:40:59;36.93;;;17.57;;
6821;SDS011;3449;48.728;8.968;2022-12-17T01:43:45;43.73;;;16.57;;
6821;SDS011;3449;48.728;8.968;2022-12-17T01:46:31;31.43;;;14.30;;
6821;SDS011;3449;48.728;8.968;2022-12-17T01:49:18;39.87;;;16.13;;
6821;SDS011;3449;48.728;8.968;2022-12-17T01:52:05;35.20;;;16.63;;
6821;SDS011;3449;48.728;8.968;2022-12-17T01:54:51;32.80;;;15.40;;
6821;SDS011;3449;48.728;8.968;2022-12-17T01:57:35;32.33;;;15.10;;
6821;SDS011;3449;48.728;8.968;2022-12-17T02:00:21;32.37;;;15.50;;
6821;SDS011;3449;48.728;8.968;2022-12-17T02:03:11;32.33;;;14.40;;
6821;SDS011;3449;48.728;8.968;2022-12-17T02:05:56;35.67;;;15.03;;
6821;SDS011;3449;48.728;8.968;2022-12-17T02:08:45;27.60;;;13.60;;
6821;SDS011;3449;48.728;8.968;2022-12-17T02:11:38;36.73;;;14.57;;
6821;SDS011;3449;48.728;8.968;2022-12-17T02:14:28;32.30;;;15.50;;
6821;SDS011;3449;48.728;8.968;2022-12-17T02:17:20;35.27;;;14.33;;
6821;SDS011;3449;48.728;8.968;2022-12-17T02:20:12;30.80;;;13.93;;
6821;SDS011;3449;48.728;8.968;2022-12-17T02:23:07;37.60;;;15.23;;
6821;SDS011;3449;48.728;8.968;2022-12-17T02:26:01;36.53;;;15.20;;
6821;SDS011;3449;48.728;8.968;2022-12-17T02:28:52;36.07;;;13.50;;
6821;SDS011;3449;48.728;8.968;2022-12-17T02:31:39;32.97;;;14.47;;
6821;SDS011;3449;48.728;8.968;2022-12-17T02:34:25;50.80;;;19.13;;
6821;SDS011;3449;48.728;8.968;2022-12-17T02:37:09;43.60;;;17.77;;
6821;SDS011;3449;48.728;8.968;2022-12-17T02:39:54;50.83;;;18.90;;
6821;SDS011;3449;48.728;8.968;2022-12-17T02:42:38;37.23;;;15.57;;
6821;SDS011;3449;48.728;8.968;2022-12-17T02:45:28;40.57;;;17.47;;
6821;SDS011;3449;48.728;8.968;2022-12-17T02:48:12;36.50;;;16.20;;
6821;SDS011;3449;48.728;8.968;2022-12-17T02:50:57;43.13;;;16.97;;
6821;SDS011;3449;48.728;8.968;2022-12-17T02:53:42;37.00;;;16.00;;
6821;SDS011;3449;48.728;8.968;2022-12-17T02:56:27;34.20;;;15.87;;
6821;SDS011;3449;48.728;8.968;2022-12-17T02:59:11;30.67;;;14.47;;
6821;SDS011;3449;48.728;8.968;2022-12-17T03:01:57;29.97;;;13.83;;
6821;SDS011;3449;48.728;8.968;2022-12-17T03:04:42;35.40;;;13.60;;
6821;SDS011;3449;48.728;8.968;2022-12-17T03:07:26;32.87;;;13.57;;
6821;SDS011;3449;48.728;8.968;2022-12-17T03:10:10;31.10;;;12.80;;
6821;SDS011;3449;48.728;8.968;2022-12-17T03:12:55;35.80;;;12.63;;
6821;SDS011;3449;48.728;8.968;2022-12-17T03:15:39;31.33;;;11.37;;
6821;SDS011;3449;48.728;8.968;2022-12-17T03:18:24;27.63;;;13.40;;
6821;SDS011;3449;48.728;8.968;2022-12-17T03:21:09;35.73;;;14.33;;
6821;SDS011;3449;48.728;8.968;2022-12-17T03:23:53;39.47;;;16.67;;
6821;SDS011;3449;48.728;8.968;2022-12-17T03:26:37;37.23;;;15.63;;
6821;SDS011;3449;48.728;8.968;2022-12-17T03:29:21;39.37;;;16.23;;
6821;SDS011;3449;48.728;8.968;2022-12-17T03:32:05;32.67;;;15.90;;
6821;SDS011;3449;48.728;8.968;2022-12-17T03:34:51;45.30;;;15.47;;
6821;SDS011;3449;48.728;8.968;2022-12-17T03:37:35;33.67;;;16.57;;
6821;SDS011;3449;48.728;8.968;2022-12-17T03:40:19;32.20;;;13.90;;
6821;SDS011;3449;48.728;8.968;2022-12-17T03:43:06;34.27;;;15.87;;
6821;SDS011;3449;48.728;8.968;2022-12-17T03:45:51;29.43;;;13.90;;
6821;SDS011;3449;48.728;8.968;2022-12-17T03:48:36;38.40;;;15.30;;
6821;SDS011;3449;48.728;8.968;2022-12-17T03:51:21;30.70;;;12.70;;
6821;SDS011;3449;48.728;8.968;2022-12-17T03:54:06;28.07;;;12.97;;
6821;SDS011;3449;48.728;8.968;2022-12-17T03:56:50;32.20;;;14.20;;
6821;SDS011;3449;48.728;8.968;2022-12-17T03:59:35;36.53;;;15.10;;
6821;SDS011;3449;48.728;8.968;2022-12-17T04:02:19;34.57;;;14.07;;
6821;SDS011;3449;48.728;8.968;2022-12-17T04:05:04;41.20;;;13.87;;
6821;SDS011;3449;48.728;8.968;2022-12-17T04:07:50;26.57;;;11.93;;
6821;SDS011;3449;48.728;8.968;2022-12-17T04:10:35;26.53;;;11.33;;
6821;SDS011;3449;48.728;8.968;2022-12-17T04:13:19;30.70;;;13.80;;
6821;SDS011;3449;48.728;8.968;2022-12-17T04:16:03;29.80;;;13.67;;
6821;SDS011;3449;48.728;8.968;2022-12-17T04:18:48;30.80;;;12.60;;
6821;SDS011;3449;48.728;8.968;2022-12-17T04:21:32;38.83;;;15.27;;
6821;SDS011;3449;48.728;8.968;2022-12-17T04:24:20;28.47;;;14.77;;
6821;SDS011;3449;48.728;8.968;2022-12-17T04:27:04;37.33;;;16.23;;
6821;SDS011;3449;48.728;8.968;2022-12-17T04:29:48;46.97;;;13.60;;
6821;SDS011;3449;48.728;8.968;2022-12-17T04:32:32;39.17;;;16.17;;
6821;SDS011;3449;48.728;8.968;2022-12-17T04:35:17;31.83;;;13.27;;
6821;SDS011;3449;48.728;8.968;2022-12-17T04:38:01;38.20;;;14.53;;
6821;SDS011;3449;48.728;8.968;2022-12-17T04:40:52;35.70;;;14.37;;
6821;SDS011;3449;48.728;8.968;2022-12-17T04:43:36;35.10;;;16.50;;
6821;SDS011;3449;48.728;8.968;2022-12-17T04:46:20;42.47;;;16.60;;
6821;SDS011;3449;48.728;8.968;2022-12-17T04:49:05;36.03;;;15.63;;
6821;SDS011;3449;48.728;8.968;2022-12-17T04:51:49;37.90;;;13.97;;
6821;SDS011;3449;48.728;8.968;2022-12-17T04:54:33;39.63;;;13.70;;
6821;SDS011;3449;48.728;8.968;2022-12-17T04:57:18;28.63;;;12.47;;
6821;SDS011;3449;48.728;8.968;2022-12-17T05:00:03;21.73;;;10.90;;
6821;SDS011;3449;48.728;8.968;2022-12-17T05:02:48;34.63;;;13.30;;
6821;SDS011;3449;48.728;8.968;2022-12-17T05:05:32;38.53;;;14.60;;
6821;SDS011;3449;48.728;8.968;2022-12-17T05:08:16;40.10;;;13.93;;
6821;SDS011;3449;48.728;8.968;2022-12-17T05:11:01;35.63;;;13.77;;
6821;SDS011;3449;48.728;8.968;2022-12-17T05:13:47;33.73;;;12.63;;
6821;SDS011;3449;48.728;8.968;2022-12-17T05:16:31;37.40;;;14.80;;
6821;SDS011;3449;48.728;8.968;2022-12-17T05:19:15;27.00;;;11.90;;
6821;SDS011;3449;48.728;8.968;2022-12-17T05:22:00;39.87;;;13.30;;
6821;SDS011;3449;48.728;8.968;2022-12-17T05:24:44;25.00;;;11.53;;
6821;SDS011;3449;48.728;8.968;2022-12-17T05:27:28;30.57;;;11.57;;
6821;SDS011;3449;48.728;8.968;2022-12-17T05:30:13;28.73;;;12.53;;
6821;SDS011;3449;48.728;8.968;2022-12-17T05:32:58;34.70;;;12.60;;
6821;SDS011;3449;48.728;8.968;2022-12-17T05:35:43;31.93;;;12.60;;
6821;SDS011;3449;48.728;8.968;2022-12-17T05:38:27;30.43;;;11.63;;
6821;SDS011;3449;48.728;8.968;2022-12-17T05:41:12;28.20;;;11.40;;
6821;SDS011;3449;48.728;8.968;2022-12-17T05:43:57;19.67;;;10.00;;
6821;SDS011;3449;48.728;8.968;2022-12-17T05:46:42;29.97;;;11.73;;
6821;SDS011;3449;48.728;8.968;2022-12-17T05:49:27;27.63;;;11.23;;
6821;SDS011;3449;48.728;8.968;2022-12-17T05:52:11;32.03;;;13.47;;
6821;SDS011;3449;48.728;8.968;2022-12-17T05:54:55;25.20;;;11.97;;
6821;SDS011;3449;48.728;8.968;2022-12-17T05:57:44;27.60;;;12.83;;
6821;SDS011;3449;48.728;8.968;2022-12-17T06:00:29;30.03;;;12.77;;
6821;SDS011;3449;48.728;8.968;2022-12-17T06:03:14;33.10;;;13.77;;
6821;SDS011;3449;48.728;8.968;2022-12-17T06:05:59;27.80;;;12.33;;
6821;SDS011;3449;48.728;8.968;2022-12-17T06:08:43;31.87;;;13.00;;
6821;SDS011;3449;48.728;8.968;2022-12-17T06:11:27;36.50;;;14.60;;
6821;SDS011;3449;48.728;8.968;2022-12-17T06:14:11;32.67;;;14.60;;
6821;SDS011;3449;48.728;8.968;2022-12-17T06:16:55;31.20;;;14.07;;
6821;SDS011;3449;48.728;8.968;2022-12-17T06:19:46;39.13;;;12.50;;
6821;SDS011;3449;48.728;8.968;2022-12-17T06:22:45;33.10;;;13.20;;
6821;SDS011;3449;48.728;8.968;2022-12-17T06:25:29;35.27;;;15.00;;
6821;SDS011;3449;48.728;8.968;2022-12-17T06:28:13;45.27;;;15.20;;
6821;SDS011;3449;48.728;8.968;2022-12-17T06:30:58;74.17;;;22.10;;
6821;SDS011;3449;48.728;8.968;2022-12-17T06:33:42;55.03;;;19.87;;
6821;SDS011;3449;48.728;8.968;2022-12-17T06:36:27;62.77;;;20.13;;
6821;SDS011;3449;48.728;8.968;2022-12-17T06:39:12;48.43;;;19.60;;
6821;SDS011;3449;48.728;8.968;2022-12-17T06:41:56;59.00;;;20.10;;
6821;SDS011;3449;48.728;8.968;2022-12-17T06:44:41;46.17;;;18.90;;
6821;SDS011;3449;48.728;8.968;2022-12-17T06:47:25;59.83;;;22.47;;
6821;SDS011;3449;48.728;8.968;2022-12-17T06:50:09;46.50;;;18.63;;
6821;SDS011;3449;48.728;8.968;2022-12-17T06:53:00;44.43;;;17.03;;
6821;SDS011;3449;48.728;8.968;2022-12-17T06:55:46;43.73;;;17.83;;
6821;SDS011;3449;48.728;8.968;2022-12-17T06:58:31;42.63;;;16.40;;
6821;SDS011;3449;48.728;8.968;2022-12-17T07:01:15;43.93;;;18.10;;
6821;SDS011;3449;48.728;8.968;2022-12-17T07:03:59;35.63;;;15.60;;
6821;SDS011;3449;48.728;8.968;2022-12-17T07:06:43;35.77;;;16.67;;
6821;SDS011;3449;48.728;8.968;2022-12-17T07:09:28;36.73;;;16.30;;
6821;SDS011;3449;48.728;8.968;2022-12-17T07:12:12;47.43;;;16.33;;
6821;SDS011;3449;48.728;8.968;2022-12-17T07:14:59;39.33;;;14.40;;
6821;SDS011;3449;48.728;8.968;2022-12-17T07:17:52;38.47;;;15.43;;
6821;SDS011;3449;48.728;8.968;2022-12-17T07:20:38;37.10;;;14.70;;
6821;SDS011;3449;48.728;8.968;2022-12-17T07:23:22;31.83;;;12.93;;
6821;SDS011;3449;48.728;8.968;2022-12-17T07:26:07;33.67;;;14.77;;
6821;SDS011;3449;48.728;8.968;2022-12-17T07:28:57;36.33;;;13.60;;
6821;SDS011;3449;48.728;8.968;2022-12-17T07:31:42;37.03;;;13.77;;
6821;SDS011;3449;48.728;8.968;2022-12-17T07:34:28;44.10;;;15.97;;
6821;SDS011;3449;48.728;8.968;2022-12-17T07:37:12;33.20;;;15.07;;
6821;SDS011;3449;48.728;8.968;2022-12-17T07:39:57;46.77;;;15.40;;
6821;SDS011;3449;48.728;8.968;2022-12-17T07:42:42;32.33;;;14.97;;
6821;SDS011;3449;48.728;8.968;2022-12-17T07:45:27;44.60;;;15.90;;
6821;SDS011;3449;48.728;8.968;2022-12-17T07:48:11;47.53;;;14.40;;
6821;SDS011;3449;48.728;8.968;2022-12-17T07:50:55;56.63;;;15.93;;
6821;SDS011;3449;48.728;8.968;2022-12-17T07:53:45;64.60;;;16.87;;
6821;SDS011;3449;48.728;8.968;2022-12-17T07:56:29;67.20;;;15.57;;
6821;SDS011;3449;48.728;8.968;2022-12-17T07:59:15;54.37;;;15.67;;
6821;SDS011;3449;48.728;8.968;2022-12-17T08:02:00;73.33;;;16.97;;
6821;SDS011;3449;48.728;8.968;2022-12-17T08:04:44;52.37;;;15.87;;
6821;SDS011;3449;48.728;8.968;2022-12-17T08:07:28;82.33;;;17.70;;
6821;SDS011;3449;48.728;8.968;2022-12-17T08:10:12;50.27;;;16.13;;
6821;SDS011;3449;48.728;8.968;2022-12-17T08:12:57;79.63;;;18.70;;
6821;SDS011;3449;48.728;8.968;2022-12-17T08:15:44;57.70;;;15.87;;
6821;SDS011;3449;48.728;8.968;2022-12-17T08:18:29;66.40;;;17.13;;
6821;SDS011;3449;48.728;8.968;2022-12-17T08:21:10;53.83;;;17.40;;
6821;SDS011;3449;48.728;8.968;2022-12-17T08:23:55;62.67;;;15.93;;
6821;SDS011;3449;48.728;8.968;2022-12-17T08:26:39;57.47;;;18.70;;
6821;SDS011;3449;48.728;8.968;2022-12-17T08:29:28;85.43;;;17.47;;
6821;SDS011;3449;48.728;8.968;2022-12-17T08:32:14;60.17;;;17.23;;
6821;SDS011;3449;48.728;8.968;2022-12-17T08:34:59;56.03;;;19.80;;
6821;SDS011;3449;48.728;8.968;2022-12-17T08:37:43;70.10;;;16.80;;
6821;SDS011;3449;48.728;8.968;2022-12-17T08:40:27;92.53;;;18.40;;
6821;SDS011;3449;48.728;8.968;2022-12-17T08:43:11;58.20;;;18.40;;
6821;SDS011;3449;48.728;8.968;2022-12-17T08:45:56;40.77;;;14.30;;
6821;SDS011;3449;48.728;8.968;2022-12-17T08:48:42;50.47;;;14.03;;
6821;SDS011;3449;48.728;8.968;2022-12-17T08:51:26;42.17;;;14.57;;
6821;SDS011;3449;48.728;8.968;2022-12-17T08:54:11;42.67;;;15.30;;
6821;SDS011;3449;48.728;8.968;2022-12-17T08:56:55;68.37;;;18.60;;
6821;SDS011;3449;48.728;8.968;2022-12-17T08:59:39;52.10;;;15.73;;
6821;SDS011;3449;48.728;8.968;2022-12-17T09:02:24;72.13;;;15.73;;
6821;SDS011;3449;48.728;8.968;2022-12-17T09:05:09;129.33;;;18.40;;
6821;SDS011;3449;48.728;8.968;2022-12-17T09:07:57;45.27;;;15.90;;
6821;SDS011;3449;48.728;8.968;2022-12-17T09:10:42;37.37;;;13.67;;
6821;SDS011;3449;48.728;8.968;2022-12-17T09:13:26;46.53;;;16.37;;
6821;SDS011;3449;48.728;8.968;2022-12-17T09:16:10;64.13;;;16.30;;
6821;SDS011;3449;48.728;8.968;2022-12-17T09:18:55;66.43;;;16.70;;
6821;SDS011;3449;48.728;8.968;2022-12-17T09:21:40;46.33;;;16.80;;
6821;SDS011;3449;48.728;8.968;2022-12-17T09:24:24;41.00;;;13.63;;
6821;SDS011;3449;48.728;8.968;2022-12-17T09:27:09;56.30;;;15.67;;
6821;SDS011;3449;48.728;8.968;2022-12-17T09:29:53;82.20;;;16.03;;
6821;SDS011;3449;48.728;8.968;2022-12-17T09:32:37;79.17;;;14.33;;
6821;SDS011;3449;48.728;8.968;2022-12-17T09:35:22;48.27;;;13.17;;
6821;SDS011;3449;48.728;8.968;2022-12-17T09:38:04;68.97;;;14.93;;
6821;SDS011;3449;48.728;8.968;2022-12-17T09:40:49;55.53;;;15.93;;
6821;SDS011;3449;48.728;8.968;2022-12-17T09:43:36;74.53;;;16.53;;
6821;SDS011;3449;48.728;8.968;2022-12-17T09:46:28;55.33;;;14.50;;
6821;SDS011;3449;48.728;8.968;2022-12-17T09:49:20;67.63;;;14.80;;
6821;SDS011;3449;48.728;8.968;2022-12-17T09:52:13;125.13;;;16.50;;
6821;SDS011;3449;48.728;8.968;2022-12-17T09:55:07;54.30;;;15.03;;
6821;SDS011;3449;48.728;8.968;2022-12-17T09:58:01;52.87;;;15.93;;
6821;SDS011;3449;48.728;8.968;2022-12-17T10:00:46;38.97;;;14.63;;
6821;SDS011;3449;48.728;8.968;2022-12-17T10:03:31;53.60;;;14.43;;
6821;SDS011;3449;48.728;8.968;2022-12-17T10:06:19;107.43;;;14.93;;
6821;SDS011;3449;48.728;8.968;2022-12-17T10:09:10;48.60;;;15.77;;
6821;SDS011;3449;48.728;8.968;2022-12-17T10:11:58;81.50;;;16.90;;
6821;SDS011;3449;48.728;8.968;2022-12-17T10:14:50;46.90;;;13.27;;
6821;SDS011;3449;48.728;8.968;2022-12-17T10:17:34;61.70;;;16.40;;
6821;SDS011;3449;48.728;8.968;2022-12-17T10:20:20;59.17;;;17.63;;
6821;SDS011;3449;48.728;8.968;2022-12-17T10:23:07;48.40;;;16.57;;
6821;SDS011;3449;48.728;8.968;2022-12-17T10:25:52;88.83;;;17.40;;
6821;SDS011;3449;48.728;8.968;2022-12-17T10:28:39;78.93;;;18.00;;
6821;SDS011;3449;48.728;8.968;2022-12-17T10:31:35;86.87;;;19.87;;
6821;SDS011;3449;48.728;8.968;2022-12-17T10:34:20;85.23;;;23.47;;
6821;SDS011;3449;48.728;8.968;2022-12-17T10:37:05;56.27;;;19.20;;
6821;SDS011;3449;48.728;8.968;2022-12-17T10:40:00;67.17;;;18.87;;
6821;SDS011;3449;48.728;8.968;2022-12-17T10:42:49;62.67;;;22.40;;
6821;SDS011;3449;48.728;8.968;2022-12-17T10:45:35;67.77;;;16.30;;
6821;SDS011;3449;48.728;8.968;2022-12-17T10:48:20;98.53;;;20.63;;
6821;SDS011;3449;48.728;8.968;2022-12-17T10:51:16;127.70;;;20.77;;
6821;SDS011;3449;48.728;8.968;2022-12-17T10:54:04;62.73;;;19.50;;
6821;SDS011;3449;48.728;8.968;2022-12-17T10:56:58;57.53;;;20.10;;
6821;SDS011;3449;48.728;8.968;2022-12-17T10:59:43;80.83;;;27.67;;
6821;SDS011;3449;48.728;8.968;2022-12-17T11:02:30;76.57;;;18.40;;
6821;SDS011;3449;48.728;8.968;2022-12-17T11:05:22;74.57;;;25.50;;
6821;SDS011;3449;48.728;8.968;2022-12-17T11:08:09;72.60;;;23.60;;
6821;SDS011;3449;48.728;8.968;2022-12-17T11:10:55;61.07;;;19.73;;
6821;SDS011;3449;48.728;8.968;2022-12-17T11:13:41;66.43;;;21.57;;
6821;SDS011;3449;48.728;8.968;2022-12-17T11:16:31;88.23;;;22.40;;
6821;SDS011;3449;48.728;8.968;2022-12-17T11:19:25;74.30;;;21.77;;
6821;SDS011;3449;48.728;8.968;2022-12-17T11:22:21;60.10;;;20.23;;
6821;SDS011;3449;48.728;8.968;2022-12-17T11:25:18;67.43;;;19.10;;
6821;SDS011;3449;48.728;8.968;2022-12-17T11:28:10;51.80;;;19.07;;
6821;SDS011;3449;48.728;8.968;2022-12-17T11:31:01;46.47;;;17.00;;
6821;SDS011;3449;48.728;8.968;2022-12-17T11:33:58;49.73;;;17.90;;
6821;SDS011;3449;48.728;8.968;2022-12-17T11:36:56;52.43;;;19.43;;
6821;SDS011;3449;48.728;8.968;2022-12-17T11:39:49;47.57;;;18.70;;
6821;SDS011;3449;48.728;8.968;2022-12-17T11:42:41;52.57;;;19.10;;
6821;SDS011;3449;48.728;8.968;2022-12-17T11:45:33;47.77;;;17.60;;
6821;SDS011;3449;48.728;8.968;2022-12-17T11:48:25;46.67;;;17.07;;
6821;SDS011;3449;48.728;8.968;2022-12-17T11:51:18;57.97;;;20.63;;
6821;SDS011;3449;48.728;8.968;2022-12-17T11:54:10;52.90;;;19.87;;
6821;SDS011;3449;48.728;8.968;2022-12-17T11:57:03;44.83;;;17.50;;
6821;SDS011;3449;48.728;8.968;2022-12-17T12:00:05;46.43;;;20.10;;
6821;SDS011;3449;48.728;8.968;2022-12-17T12:02:58;47.80;;;19.60;;
6821;SDS011;3449;48.728;8.968;2022-12-17T12:05:56;48.17;;;18.83;;
6821;SDS011;3449;48.728;8.968;2022-12-17T12:08:54;49.90;;;19.13;;
6821;SDS011;3449;48.728;8.968;2022-12-17T12:11:50;48.90;;;18.73;;
6821;SDS011;3449;48.728;8.968;2022-12-17T12:14:42;40.20;;;16.70;;
6821;SDS011;3449;48.728;8.968;2022-12-17T12:17:37;36.40;;;15.30;;
6821;SDS011;3449;48.728;8.968;2022-12-17T12:20:32;44.90;;;18.27;;
6821;SDS011;3449;48.728;8.968;2022-12-17T12:23:28;52.17;;;19.43;;
6821;SDS011;3449;48.728;8.968;2022-12-17T12:26:23;55.90;;;22.20;;
6821;SDS011;3449;48.728;8.968;2022-12-17T12:29:14;57.63;;;23.47;;
6821;SDS011;3449;48.728;8.968;2022-12-17T12:32:09;65.30;;;20.87;;
6821;SDS011;3449;48.728;8.968;2022-12-17T12:34:59;59.43;;;21.57;;
6821;SDS011;3449;48.728;8.968;2022-12-17T12:37:47;52.80;;;22.37;;
6821;SDS011;3449;48.728;8.968;2022-12-17T12:40:33;53.73;;;24.27;;
6821;SDS011;3449;48.728;8.968;2022-12-17T12:43:23;48.73;;;20.27;;
6821;SDS011;3449;48.728;8.968;2022-12-17T12:46:14;47.03;;;19.50;;
6821;SDS011;3449;48.728;8.968;2022-12-17T12:49:03;51.70;;;21.93;;
6821;SDS011;3449;48.728;8.968;2022-12-17T12:51:55;48.97;;;22.10;;
6821;SDS011;3449;48.728;8.968;2022-12-17T12:54:49;50.00;;;21.27;;
6821;SDS011;3449;48.728;8.968;2022-12-17T12:57:36;42.27;;;19.47;;
6821;SDS011;3449;48.728;8.968;2022-12-17T13:00:24;44.70;;;20.50;;
6821;SDS011;3449;48.728;8.968;2022-12-17T13:03:18;51.23;;;21.43;;
6821;SDS011;3449;48.728;8.968;2022-12-17T13:06:08;45.80;;;21.47;;
6821;SDS011;3449;48.728;8.968;2022-12-17T13:08:35;39.60;;;18.70;;
6821;SDS011;3449;48.728;8.968;2022-12-17T13:13:54;49.60;;;19.30;;
6821;SDS011;3449;48.728;8.968;2022-12-17T13:16:31;45.03;;;18.80;;
6821;SDS011;3449;48.728;8.968;2022-12-17T13:19:16;42.80;;;18.10;;
6821;SDS011;3449;48.728;8.968;2022-12-17T13:21:46;47.47;;;19.83;;
6821;SDS011;3449;48.728;8.968;2022-12-17T13:24:21;43.30;;;20.13;;
6821;SDS011;3449;48.728;8.968;2022-12-17T13:26:49;57.20;;;22.33;;
6821;SDS011;3449;48.728;8.968;2022-12-17T13:29:20;45.07;;;19.53;;
6821;SDS011;3449;48.728;8.968;2022-12-17T13:31:59;47.70;;;19.93;;
6821;SDS011;3449;48.728;8.968;2022-12-17T13:34:36;47.10;;;19.30;;
6821;SDS011;3449;48.728;8.968;2022-12-17T13:37:13;36.47;;;16.40;;
6821;SDS011;3449;48.728;8.968;2022-12-17T13:39:49;48.77;;;18.33;;
6821;SDS011;3449;48.728;8.968;2022-12-17T13:42:24;40.53;;;18.47;;
6821;SDS011;3449;48.728;8.968;2022-12-17T13:44:53;38.57;;;18.30;;
6821;SDS011;3449;48.728;8.968;2022-12-17T13:47:22;44.73;;;18.40;;
6821;SDS011;3449;48.728;8.968;2022-12-17T13:49:52;41.43;;;17.23;;
6821;SDS011;3449;48.728;8.968;2022-12-17T13:52:22;40.67;;;17.17;;
6821;SDS011;3449;48.728;8.968;2022-12-17T13:54:50;41.70;;;18.50;;
6821;SDS011;3449;48.728;8.968;2022-12-17T13:57:18;47.10;;;16.33;;
6821;SDS011;3449;48.728;8.968;2022-12-17T13:59:50;41.97;;;17.20;;
6821;SDS011;3449;48.728;8.968;2022-12-17T14:02:24;45.80;;;17.97;;
6821;SDS011;3449;48.728;8.968;2022-12-17T14:04:53;43.07;;;17.83;;
6821;SDS011;3449;48.728;8.968;2022-12-17T14:07:22;37.67;;;16.97;;
6821;SDS011;3449;48.728;8.968;2022-12-17T14:09:49;43.13;;;19.33;;
6821;SDS011;3449;48.728;8.968;2022-12-17T14:12:17;48.43;;;19.00;;
6821;SDS011;3449;48.728;8.968;2022-12-17T14:14:48;45.10;;;17.50;;
6821;SDS011;3449;48.728;8.968;2022-12-17T14:17:19;47.33;;;18.40;;
6821;SDS011;3449;48.728;8.968;2022-12-17T14:19:47;59.97;;;19.17;;
6821;SDS011;3449;48.728;8.968;2022-12-17T14:22:21;49.90;;;18.47;;
6821;SDS011;3449;48.728;8.968;2022-12-17T14:24:53;48.37;;;20.00;;
6821;SDS011;3449;48.728;8.968;2022-12-17T14:27:22;49.13;;;19.73;;
6821;SDS011;3449;48.728;8.968;2022-12-17T14:29:51;48.00;;;19.87;;
6821;SDS011;3449;48.728;8.968;2022-12-17T14:32:22;50.47;;;19.03;;
6821;SDS011;3449;48.728;8.968;2022-12-17T14:34:51;48.97;;;20.67;;
6821;SDS011;3449;48.728;8.968;2022-12-17T14:37:18;50.30;;;19.23;;
6821;SDS011;3449;48.728;8.968;2022-12-17T14:39:49;53.53;;;20.73;;
6821;SDS011;3449;48.728;8.968;2022-12-17T14:42:18;45.30;;;18.73;;
6821;SDS011;3449;48.728;8.968;2022-12-17T14:44:54;40.67;;;18.00;;
6821;SDS011;3449;48.728;8.968;2022-12-17T14:47:23;46.40;;;19.50;;
6821;SDS011;3449;48.728;8.968;2022-12-17T14:49:53;51.67;;;19.40;;
6821;SDS011;3449;48.728;8.968;2022-12-17T14:52:26;56.23;;;20.27;;
6821;SDS011;3449;48.728;8.968;2022-12-17T14:54:58;47.37;;;20.13;;
6821;SDS011;3449;48.728;8.968;2022-12-17T14:57:25;45.53;;;18.63;;
6821;SDS011;3449;48.728;8.968;2022-12-17T14:59:52;43.13;;;18.83;;
6821;SDS011;3449;48.728;8.968;2022-12-17T15:02:20;46.30;;;18.73;;
6821;SDS011;3449;48.728;8.968;2022-12-17T15:04:50;48.43;;;18.83;;
6821;SDS011;3449;48.728;8.968;2022-12-17T15:07:20;43.80;;;18.33;;
6821;SDS011;3449;48.728;8.968;2022-12-17T15:09:51;45.53;;;18.23;;
6821;SDS011;3449;48.728;8.968;2022-12-17T15:12:18;60.93;;;24.00;;
6821;SDS011;3449;48.728;8.968;2022-12-17T15:14:45;55.30;;;18.90;;
6821;SDS011;3449;48.728;8.968;2022-12-17T15:17:12;58.63;;;20.80;;
6821;SDS011;3449;48.728;8.968;2022-12-17T15:19:40;67.90;;;22.40;;
6821;SDS011;3449;48.728;8.968;2022-12-17T15:22:09;69.20;;;26.20;;
6821;SDS011;3449;48.728;8.968;2022-12-17T15:24:39;62.47;;;24.37;;
6821;SDS011;3449;48.728;8.968;2022-12-17T15:27:08;59.57;;;22.27;;
6821;SDS011;3449;48.728;8.968;2022-12-17T15:29:37;69.27;;;22.10;;
6821;SDS011;3449;48.728;8.968;2022-12-17T15:32:04;59.10;;;21.37;;
6821;SDS011;3449;48.728;8.968;2022-12-17T15:34:31;76.57;;;26.00;;
6821;SDS011;3449;48.728;8.968;2022-12-17T15:36:58;67.00;;;22.30;;
6821;SDS011;3449;48.728;8.968;2022-12-17T15:39:25;66.80;;;22.87;;
6821;SDS011;3449;48.728;8.968;2022-12-17T15:41:52;63.53;;;22.10;;
6821;SDS011;3449;48.728;8.968;2022-12-17T15:44:37;55.90;;;21.77;;
6821;SDS011;3449;48.728;8.968;2022-12-17T15:47:04;67.63;;;22.27;;
6821;SDS011;3449;48.728;8.968;2022-12-17T15:49:31;57.20;;;22.27;;
6821;SDS011;3449;48.728;8.968;2022-12-17T15:51:58;77.20;;;24.80;;
6821;SDS011;3449;48.728;8.968;2022-12-17T15:54:25;63.17;;;22.40;;
6821;SDS011;3449;48.728;8.968;2022-12-17T15:56:52;62.50;;;23.87;;
6821;SDS011;3449;48.728;8.968;2022-12-17T15:59:20;60.23;;;22.03;;
6821;SDS011;3449;48.728;8.968;2022-12-17T16:01:48;76.33;;;26.03;;
6821;SDS011;3449;48.728;8.968;2022-12-17T16:04:15;72.73;;;23.40;;
6821;SDS011;3449;48.728;8.968;2022-12-17T16:06:42;74.70;;;22.90;;
6821;SDS011;3449;48.728;8.968;2022-12-17T16:09:09;55.10;;;20.30;;
6821;SDS011;3449;48.728;8.968;2022-12-17T16:11:36;59.70;;;20.17;;
6821;SDS011;3449;48.728;8.968;2022-12-17T16:14:03;63.60;;;20.77;;
6821;SDS011;3449;48.728;8.968;2022-12-17T16:16:29;62.63;;;20.10;;
6821;SDS011;3449;48.728;8.968;2022-12-17T16:18:58;63.20;;;21.20;;
6821;SDS011;3449;48.728;8.968;2022-12-17T16:21:26;69.13;;;22.57;;
6821;SDS011;3449;48.728;8.968;2022-12-17T16:23:53;69.30;;;22.97;;
6821;SDS011;3449;48.728;8.968;2022-12-17T16:26:20;73.20;;;24.67;;